New! ScoreMeUp is now available on the App Store. Download the iOS app →

Western Zone Zone Girls 15-16 - 50 M Fly

These rankings show the swimmers' placement within their Zone.
They are based on the swimmer's personal best, their current age category, and team; and are calculated from all the meets results.
For each swimmer, you can find the swimmer's ranking, their best time, the corresponding time standard, as well as how much faster the swimmer needs to be to reach the next level. The last columns provide information about the event they achieved this personal best.

Swimmer Rankings

Ranking Name Time Age Standard to Next Standard Team Date Meet
2301 Lillie Rivera 1:03.39 15 B: 38.99 (+24.40s | 38.5%) Ace Aquatics 05/27/2023 2023 Mike Snyder Memorial
2302 HAILEY JIANG 1:03.49 15 B: 38.99 (+24.50s | 38.6%) Daly City Dolphins 06/01/2019 South San Francisco Aquatic Club C/B/A+
2303 Andrea Dykes 1:03.55 15 B: 38.99 (+24.56s | 38.6%) Converse County Waves 06/25/2021 2021 Mt Rushmore Classic
2304 Kamryn Smith 1:03.63 15 B: 38.99 (+24.64s | 38.7%) Utah Valley Aquatics 05/02/2025 2025 UVrays LC May Invitational
2305 Rebecca Piccardo 1:03.80 15 B: 38.99 (+24.81s | 38.9%) Gilroy Gators Swim Team 05/14/2022 2022 San Benito Aquatics LC CBA Meet
2306 Savannah Lee 1:04.25 14 B: 38.99 (+25.26s | 39.3%) Voltage Aquatics 06/07/2025 Summer Classics 2025
2307 Stella Hoppe 1:04.57 14 B: 38.99 (+25.58s | 39.6%) Carson Tigersharks 05/24/2024 2024 Intermountain Classic LC Swim Meet
2308 Clara Barker 1:05.08 16 B: 38.99 (+26.09s | 40.1%) Hillsboro Swim Team 06/12/2026 2026 THSC June Open
2309 Lindyn Taylor 1:05.19 14 B: 38.99 (+26.20s | 40.2%) Poseidon Aquatic Club 06/14/2025 2025 IST June Invtational
2310 Jackson Bowlby 1:05.31 16 B: 38.99 (+26.32s | 40.3%) VANCOUVER SWIM CLUB 06/12/2026 2026 THSC June Open
2311 Karli Watts 1:05.35 16 B: 38.99 (+26.36s | 40.3%) COSA Swimming 06/25/2021 2021 Mt Rushmore Classic
2312 Nikita Mathur 1:05.57 15 B: 38.99 (+26.58s | 40.5%) DeAnza Cupertino Aquatics 04/30/2022 ALTO Z1N Long Course Invitational Meet
2313 Camrynn Tampas 1:05.67 14 B: 38.99 (+26.68s | 40.6%) Rocklin Swim Team 05/28/2022 2022 Tiger Aquatics C B BB+ Memorial Day Meet
2314 Harper Williams 1:06.43 16 B: 38.99 (+27.44s | 41.3%) Lehi Aquatics 06/02/2022 2022 UT CHAT Non Qualifier
2315 Katherine Carlstrom 1:06.67 15 B: 38.99 (+27.68s | 41.5%) COSA Swimming 06/25/2021 2021 Mt Rushmore Classic
2316 Clair McGarry 1:07.63 16 B: 38.99 (+28.64s | 42.3%) Cascadia Swimming 11/02/2024 Oregon City Fall Open 2024
2317 Piper Miller 1:07.90 16 B: 38.99 (+28.91s | 42.6%) Vacaville Swim Club 04/27/2019 NVST S Spring Splash Long Course C B A+
2318 Clara White 1:08.57 14 B: 38.99 (+29.58s | 43.1%) Gillette Swim Team 12/16/2023 DEC 2023 SD Black Hills Gold Pentathlon
2319 Silver Doyle 1:09.42 15 B: 38.99 (+30.43s | 43.8%) Cottonwood Heights Aquatics 05/21/2019 2019 UT KYAT LC Classic
2320 Julia Haight 1:10.13 15 B: 38.99 (+31.14s | 44.4%) Lehi Aquatics 05/05/2022 2022 UVRays LC Oviatt Inv
2321 Mykenna Hanks 1:10.48 15 B: 38.99 (+31.49s | 44.7%) Converse County Waves 06/24/2022 2022 Mt Rushmore Classic
2322 Indigo Briskman 1:10.51 16 B: 38.99 (+31.52s | 44.7%) Montclair Swim Team 04/27/2019 Short Course C B A+
2323 Julieta Miranda Scott 1:12.03 15 B: 38.99 (+33.04s | 45.9%) Front Range Barracudas 06/21/2019 2019 Mt Rushmore Classic
2324 Sophia Temple 1:13.50 15 B: 38.99 (+34.51s | 47.0%) Northern Nevada Aquatics 07/16/2021 2021 NNA Silver State Championships
2325 Aubrey Lik 1:14.78 15 B: 38.99 (+35.79s | 47.9%) Alto Swim Club 05/18/2019 LAMV C B A+ Long Course
2326 Kaitlyn Lowgren 1:16.40 16 B: 38.99 (+37.41s | 49.0%) Napa Valley Swim Team 06/22/2019 NVST S LAST CHANCE JO SUMMER PLUNGE
2327 Preslee Miller 1:16.99 16 B: 38.99 (+38.00s | 49.4%) Bishop Swim Team 07/19/2019 Silver State Championships 2019
2328 Embry Aguilera 1:18.56 16 B: 38.99 (+39.57s | 50.4%) Bishop Swim Team 07/16/2021 2021 NNA Silver State Championships
2329 RACHEL GIANOCARO 1:24.76 16 B: 38.99 (+45.77s | 54.0%) South Valley Stingrays 04/14/2019 Valley Splash C/B/A+ Meet
2330 Olive Carruth 1:29.26 14 B: 38.99 (+50.27s | 56.3%) Hilltop Aquatic Swim Team 06/21/2025 2025 UT HAST RWB BC Medals Meet

Disclaimer: This Website is not affiliated with USA Swimming or any Local Swim Committee. The rankings and times displayed on this website are unofficial and should not be viewed as such. We update our information regularly, but we cannot guarantee that the data is accurate, timely, or complete. The only purpose of this website is entertainment. None of the information here should be used for university admission applications.